Time;durP1;ratioP1;P1;durP2;ratioP2;P2;SDS_P1;SDS_P2;PMS_P1;PMS_P2;Temp;Humidity;BMP_temperature;BMP_pressure;BME280_temperature;BME280_humidity;BME280_pressure;Samples;Min_cycle;Max_cycle;Signal;HPM_P1;HPM_P2
2021/09/15 00:01:15;;;;;;;5.10;3.20;;;18.20;60.80;;;;;;5035487;28;20032;-61
2021/09/15 00:03:41;;;;;;;5.50;3.05;;;18.10;60.70;;;;;;5034317;28;20028;-61
2021/09/15 00:06:07;;;;;;;5.55;3.22;;;18.00;60.70;;;;;;5033907;28;20040;-61
2021/09/15 00:08:33;;;;;;;5.68;2.90;;;17.90;60.50;;;;;;5034201;28;20022;-61
2021/09/15 00:11:00;;;;;;;5.85;3.00;;;17.90;60.60;;;;;;5034066;28;20021;-61
2021/09/15 00:13:27;;;;;;;7.28;2.78;;;17.70;60.50;;;;;;5034090;28;20034;-60
2021/09/15 00:15:53;;;;;;;5.30;2.63;;;17.70;60.50;;;;;;5031661;28;20079;-61
2021/09/15 00:18:18;;;;;;;5.75;2.90;;;17.60;60.40;;;;;;5033685;28;20029;-60
2021/09/15 00:20:44;;;;;;;5.15;2.63;;;17.50;60.40;;;;;;5033713;28;20029;-61
2021/09/15 00:23:09;;;;;;;5.25;2.65;;;17.50;60.30;;;;;;5033859;28;20032;-60
2021/09/15 00:25:35;;;;;;;5.80;2.60;;;17.40;60.10;;;;;;5034085;28;20029;-61
2021/09/15 00:28:01;;;;;;;4.85;2.42;;;17.40;60.10;;;;;;5033484;28;20087;-60
2021/09/15 00:30:26;;;;;;;4.97;2.55;;;17.40;59.90;;;;;;5033913;28;20029;-61
2021/09/15 00:32:52;;;;;;;5.78;2.83;;;17.30;59.70;;;;;;5031697;28;20041;-61
2021/09/15 00:35:18;;;;;;;5.43;2.78;;;17.20;59.60;;;;;;5033522;28;20034;-61
2021/09/15 00:37:43;;;;;;;6.60;3.28;;;17.20;59.40;;;;;;5033549;28;20022;-61
2021/09/15 00:40:10;;;;;;;5.72;2.88;;;17.20;59.10;;;;;;5033710;28;20587;-61
2021/09/15 00:42:35;;;;;;;6.05;2.75;;;17.10;58.80;;;;;;5033506;28;20032;-60
2021/09/15 00:45:02;;;;;;;5.10;2.58;;;17.10;58.60;;;;;;5033449;28;20033;-62
2021/09/15 00:47:28;;;;;;;6.20;3.03;;;17.00;58.50;;;;;;5031883;28;20527;-61
2021/09/15 00:49:53;;;;;;;5.70;2.75;;;17.00;58.20;;;;;;5032785;28;20108;-61
2021/09/15 00:52:19;;;;;;;5.38;2.45;;;16.90;57.80;;;;;;5033157;28;20081;-61
2021/09/15 00:54:45;;;;;;;5.80;2.65;;;16.90;57.50;;;;;;5033257;28;20036;-61
2021/09/15 00:57:10;;;;;;;4.78;2.28;;;16.90;57.40;;;;;;5032635;28;20414;-61
2021/09/15 00:59:36;;;;;;;4.40;2.17;;;16.80;57.10;;;;;;5032860;28;20117;-61
2021/09/15 01:02:02;;;;;;;5.22;2.28;;;16.80;57.10;;;;;;5033140;28;20053;-61
2021/09/15 01:04:28;;;;;;;4.78;2.13;;;16.70;57.00;;;;;;5031490;28;20056;-61
2021/09/15 01:06:54;;;;;;;4.72;2.08;;;16.70;57.00;;;;;;5032689;28;20465;-61
2021/09/15 01:09:20;;;;;;;4.40;2.00;;;16.70;57.00;;;;;;5032907;28;20031;-61
2021/09/15 01:11:47;;;;;;;4.32;2.20;;;16.70;57.00;;;;;;5033127;28;20431;-60
2021/09/15 01:14:13;;;;;;;4.65;2.20;;;16.70;57.00;;;;;;5032940;28;20026;-62
2021/09/15 01:16:59;;;;;;;4.40;2.10;;;16.70;57.00;;;;;;5032629;28;20487;-61
2021/09/15 01:19:25;;;;;;;4.72;1.90;;;16.70;57.00;;;;;;5032479;28;20057;-61
2021/09/15 01:21:52;;;;;;;4.45;1.88;;;16.60;57.60;;;;;;5031511;28;20032;-61
2021/09/15 01:24:18;;;;;;;4.53;2.13;;;16.70;56.80;;;;;;5032412;28;20047;-61
2021/09/15 01:26:44;;;;;;;6.18;2.00;;;16.60;56.80;;;;;;5032446;28;20423;-60
2021/09/15 01:29:21;;;;;;;4.00;1.80;;;16.60;56.80;;;;;;5031455;28;20033;-62
2021/09/15 01:32:14;;;;;;;3.90;1.85;;;16.60;56.70;;;;;;5032524;28;20113;-62
2021/09/15 01:34:49;;;;;;;4.20;1.75;;;16.60;56.60;;;;;;5031473;28;20033;-61
2021/09/15 01:37:16;;;;;;;3.60;1.65;;;16.50;56.60;;;;;;5032252;28;20447;-60
2021/09/15 01:39:42;;;;;;;3.50;1.63;;;16.50;56.50;;;;;;5032227;28;20473;-61
2021/09/15 01:42:09;;;;;;;4.15;1.95;;;16.50;56.30;;;;;;5032561;28;20033;-61
2021/09/15 01:44:37;;;;;;;3.80;1.90;;;16.50;56.30;;;;;;5032406;28;20021;-61
2021/09/15 01:47:04;;;;;;;4.40;2.05;;;16.40;56.10;;;;;;5032007;28;20029;-61
2021/09/15 01:49:31;;;;;;;4.82;2.25;;;16.40;56.00;;;;;;5032442;28;20051;-61
2021/09/15 01:51:58;;;;;;;4.07;1.73;;;16.40;55.90;;;;;;5032069;28;20068;-60
2021/09/15 01:54:24;;;;;;;4.53;1.77;;;16.40;55.80;;;;;;5032174;28;20025;-61
2021/09/15 01:56:51;;;;;;;4.20;1.95;;;16.30;55.80;;;;;;5031917;28;20075;-60
2021/09/15 01:59:17;;;;;;;4.55;2.20;;;16.30;55.90;;;;;;5032162;28;20026;-61
2021/09/15 02:01:42;;;;;;;4.22;1.90;;;16.20;55.90;;;;;;5031126;28;20040;-61
2021/09/15 02:04:08;;;;;;;3.95;1.60;;;16.20;55.90;;;;;;5032405;28;20095;-60
2021/09/15 02:06:35;;;;;;;3.58;1.60;;;16.20;55.70;;;;;;5030515;28;20025;-60
2021/09/15 02:09:01;;;;;;;4.88;1.90;;;16.20;55.60;;;;;;5031212;28;20025;-61
2021/09/15 02:11:27;;;;;;;4.10;1.80;;;16.20;55.60;;;;;;5032111;28;20488;-61
2021/09/15 02:13:54;;;;;;;3.63;1.58;;;16.10;55.60;;;;;;5031448;28;20065;-62
2021/09/15 02:16:20;;;;;;;4.07;1.75;;;16.10;55.50;;;;;;5031762;28;20017;-61
2021/09/15 02:18:46;;;;;;;3.72;1.70;;;16.10;55.60;;;;;;5031793;28;20086;-61
2021/09/15 02:21:12;;;;;;;4.13;1.70;;;16.10;55.50;;;;;;5031949;28;20021;-61
2021/09/15 02:23:38;;;;;;;4.28;1.50;;;16.10;55.60;;;;;;5029874;28;20025;-61
2021/09/15 02:26:04;;;;;;;3.40;1.63;;;16.00;55.50;;;;;;5031493;28;20025;-61
2021/09/15 02:28:29;;;;;;;3.28;1.60;;;16.00;55.60;;;;;;5031836;28;20033;-61
2021/09/15 02:30:55;;;;;;;3.60;1.73;;;16.00;55.50;;;;;;5031785;28;20075;-61
2021/09/15 02:33:20;;;;;;;3.25;1.50;;;16.00;55.50;;;;;;5031664;28;20029;-61
2021/09/15 02:35:46;;;;;;;4.15;1.70;;;15.90;55.50;;;;;;5031492;28;20181;-61
2021/09/15 02:38:12;;;;;;;3.75;1.60;;;15.90;55.50;;;;;;5031605;28;20033;-61
2021/09/15 02:40:37;;;;;;;3.50;1.63;;;15.90;56.00;;;;;;5031706;28;20032;-61
2021/09/15 02:43:04;;;;;;;4.20;1.60;;;15.90;55.40;;;;;;5031631;28;20476;-61
2021/09/15 02:45:29;;;;;;;3.80;1.50;;;15.80;55.40;;;;;;5030639;28;20033;-61
2021/09/15 02:47:55;;;;;;;3.60;1.48;;;15.80;55.40;;;;;;5030288;28;20033;-61
2021/09/15 02:50:21;;;;;;;3.33;1.58;;;15.70;55.30;;;;;;5031868;28;20443;-61
2021/09/15 02:52:46;;;;;;;3.40;1.50;;;15.70;55.30;;;;;;5031624;28;20053;-61
2021/09/15 02:55:12;;;;;;;3.92;1.58;;;15.60;55.30;;;;;;5029807;28;20029;-61
2021/09/15 02:57:38;;;;;;;3.72;1.45;;;15.60;55.40;;;;;;5031047;28;20033;-61
2021/09/15 03:00:05;;;;;;;2.55;1.23;;;15.50;55.50;;;;;;5031039;28;20079;-61
2021/09/15 03:02:31;;;;;;;3.53;1.50;;;15.50;55.50;;;;;;5031654;28;20072;-61
2021/09/15 03:04:56;;;;;;;3.88;1.80;;;15.50;55.30;;;;;;5031273;28;20036;-61
2021/09/15 03:07:22;;;;;;;3.63;1.50;;;15.50;55.40;;;;;;5031042;28;20036;-60
2021/09/15 03:09:48;;;;;;;3.88;1.50;;;15.40;55.40;;;;;;5031455;28;20091;-60
2021/09/15 03:12:14;;;;;;;3.63;1.50;;;15.40;55.40;;;;;;5031350;28;20033;-61
2021/09/15 03:14:39;;;;;;;3.83;1.70;;;15.40;55.50;;;;;;5030879;28;20029;-61
2021/09/15 03:17:05;;;;;;;3.50;1.80;;;15.40;55.40;;;;;;5030716;28;20022;-62
2021/09/15 03:19:31;;;;;;;3.80;1.80;;;15.40;55.20;;;;;;5031821;28;20034;-62
2021/09/15 03:21:56;;;;;;;3.78;1.63;;;15.40;55.10;;;;;;5035097;28;20108;-61
2021/09/15 03:24:22;;;;;;;3.97;1.77;;;15.40;55.10;;;;;;5035041;28;20101;-61
2021/09/15 03:26:48;;;;;;;3.78;1.60;;;15.30;54.90;;;;;;5034355;28;20034;-61
2021/09/15 03:29:13;;;;;;;4.40;1.70;;;15.30;54.80;;;;;;5034936;28;20029;-61
2021/09/15 03:31:39;;;;;;;3.05;1.40;;;15.30;54.90;;;;;;5035059;28;20063;-61
2021/09/15 03:34:05;;;;;;;3.53;1.80;;;15.30;55.00;;;;;;5033765;28;20401;-61
2021/09/15 03:36:31;;;;;;;4.15;1.80;;;15.30;54.90;;;;;;5034407;28;20029;-61
2021/09/15 03:38:56;;;;;;;3.35;1.35;;;15.30;54.90;;;;;;5034513;28;20097;-60
2021/09/15 03:41:22;;;;;;;4.35;1.30;;;15.30;54.80;;;;;;5034721;28;20032;-61
2021/09/15 03:43:48;;;;;;;3.97;1.60;;;15.30;54.80;;;;;;5034689;28;20018;-61
2021/09/15 03:46:14;;;;;;;3.85;1.60;;;15.30;54.80;;;;;;5034329;28;20018;-62
2021/09/15 03:48:39;;;;;;;4.15;1.77;;;15.30;54.70;;;;;;5014548;28;20033;-61
2021/09/15 03:51:05;;;;;;;4.57;1.90;;;15.30;54.70;;;;;;5014187;28;20508;-63
2021/09/15 03:53:31;;;;;;;3.78;1.63;;;15.30;54.80;;;;;;5014701;28;20022;-62
2021/09/15 03:55:56;;;;;;;4.53;1.52;;;15.30;54.90;;;;;;5014652;28;20034;-61
2021/09/15 03:58:22;;;;;;;3.67;1.70;;;15.30;55.00;;;;;;5034142;28;20032;-61
2021/09/15 04:00:48;;;;;;;4.10;1.85;;;15.30;55.00;;;;;;5033057;28;20147;-61
2021/09/15 04:03:13;;;;;;;4.35;2.08;;;15.40;55.00;;;;;;5034193;28;20435;-61
2021/09/15 04:05:39;;;;;;;3.88;1.80;;;15.40;54.90;;;;;;5034124;28;20030;-61
2021/09/15 04:08:05;;;;;;;5.25;2.00;;;15.40;54.90;;;;;;5033698;28;20167;-61
2021/09/15 04:10:30;;;;;;;4.65;2.10;;;15.50;54.90;;;;;;5034053;28;20098;-61
2021/09/15 04:12:56;;;;;;;5.30;2.60;;;15.50;54.90;;;;;;5034228;28;20112;-62
2021/09/15 04:15:22;;;;;;;5.28;2.60;;;15.50;54.90;;;;;;5031600;28;20037;-63
2021/09/15 04:17:47;;;;;;;5.45;2.53;;;15.50;54.90;;;;;;5033900;28;20029;-62
2021/09/15 04:20:13;;;;;;;5.82;2.28;;;15.50;54.90;;;;;;5034000;28;20026;-62
2021/09/15 04:22:40;;;;;;;5.95;2.38;;;15.50;54.90;;;;;;5033840;28;20022;-61
2021/09/15 04:33:19;;;;;;;6.50;2.95;;;15.50;55.20;;;;;;5033632;28;20091;-61
2021/09/15 04:35:45;;;;;;;5.40;2.80;;;15.50;55.20;;;;;;5033130;28;20021;-61
2021/09/15 04:38:11;;;;;;;5.53;2.63;;;15.50;55.20;;;;;;5033341;28;20017;-62
2021/09/15 04:40:36;;;;;;;4.80;2.40;;;15.50;55.30;;;;;;5033664;28;20029;-62
2021/09/15 04:43:02;;;;;;;4.78;2.15;;;15.50;55.30;;;;;;5033750;28;20124;-61
2021/09/15 04:45:27;;;;;;;5.00;1.95;;;15.60;55.40;;;;;;5033586;28;20111;-61
2021/09/15 04:47:53;;;;;;;4.53;2.17;;;15.60;55.50;;;;;;5033028;28;20026;-61
2021/09/15 04:50:19;;;;;;;4.03;1.95;;;15.60;55.50;;;;;;5033442;28;20470;-63
2021/09/15 04:52:44;;;;;;;4.00;1.90;;;15.60;55.40;;;;;;5033009;28;20124;-61
2021/09/15 04:55:10;;;;;;;4.70;1.88;;;15.60;55.40;;;;;;5033119;28;20073;-62
2021/09/15 04:57:36;;;;;;;4.95;2.00;;;15.70;55.50;;;;;;5032849;28;20029;-62
2021/09/15 05:00:03;;;;;;;4.82;1.80;;;15.80;55.50;;;;;;5032911;28;20437;-61
2021/09/15 05:02:28;;;;;;;5.80;2.10;;;15.80;55.40;;;;;;5032618;28;20459;-62
2021/09/15 05:04:54;;;;;;;5.18;1.90;;;15.90;56.00;;;;;;5032487;28;20033;-62
2021/09/15 05:07:20;;;;;;;4.20;1.70;;;15.90;55.40;;;;;;5032282;28;20022;-63
2021/09/15 05:09:45;;;;;;;4.05;1.60;;;15.90;55.40;;;;;;5032739;28;20036;-62
2021/09/15 05:12:11;;;;;;;4.05;1.98;;;16.00;55.30;;;;;;5032777;28;20144;-62
2021/09/15 05:14:37;;;;;;;3.80;1.70;;;15.90;55.20;;;;;;5032401;28;20087;-63
2021/09/15 05:17:02;;;;;;;4.57;1.75;;;15.90;55.30;;;;;;5032717;28;20530;-62
2021/09/15 05:19:28;;;;;;;3.75;1.80;;;15.90;55.30;;;;;;5032051;28;20033;-62
2021/09/15 05:21:54;;;;;;;4.20;1.60;;;15.90;55.30;;;;;;5032646;28;20184;-61
2021/09/15 05:24:19;;;;;;;3.78;1.42;;;15.90;55.20;;;;;;5032737;28;20025;-62
2021/09/15 05:26:45;;;;;;;3.28;1.50;;;16.00;55.10;;;;;;5032258;28;20074;-63
2021/09/15 05:29:11;;;;;;;3.20;1.33;;;15.90;55.00;;;;;;5032027;28;20113;-62
2021/09/15 05:31:36;;;;;;;3.10;1.30;;;16.00;55.10;;;;;;5031855;28;20037;-62
2021/09/15 05:34:02;;;;;;;3.05;1.38;;;16.00;55.00;;;;;;5032025;28;20029;-63
2021/09/15 05:36:28;;;;;;;3.00;1.30;;;16.00;55.00;;;;;;5032257;28;20393;-62
2021/09/15 05:38:53;;;;;;;3.33;1.38;;;16.10;55.00;;;;;;5032398;28;20041;-62
2021/09/15 05:41:19;;;;;;;3.13;1.40;;;16.10;54.80;;;;;;5031995;28;20099;-62
2021/09/15 05:43:45;;;;;;;3.65;1.30;;;16.10;54.80;;;;;;5031875;28;20072;-62
2021/09/15 05:46:10;;;;;;;3.08;1.50;;;16.10;54.80;;;;;;5031381;28;20547;-62
2021/09/15 05:48:36;;;;;;;3.42;1.52;;;16.10;54.70;;;;;;5032180;28;20053;-62
2021/09/15 05:51:02;;;;;;;3.05;1.40;;;16.20;54.70;;;;;;5032030;28;20090;-62
2021/09/15 05:53:27;;;;;;;3.63;1.58;;;16.20;54.50;;;;;;5031886;28;20021;-62
2021/09/15 05:55:53;;;;;;;2.70;1.20;;;16.20;54.50;;;;;;5031710;28;20029;-62
2021/09/15 05:58:20;;;;;;;2.55;1.20;;;16.20;54.50;;;;;;5031980;28;20029;-63
2021/09/15 06:00:46;;;;;;;3.05;1.30;;;16.30;54.40;;;;;;5031400;28;20473;-62
2021/09/15 06:03:12;;;;;;;2.78;1.20;;;16.30;54.20;;;;;;5030432;28;20033;-63
2021/09/15 06:05:38;;;;;;;4.03;1.58;;;16.40;54.20;;;;;;5031298;28;20061;-61
2021/09/15 06:08:04;;;;;;;3.20;1.30;;;16.40;54.10;;;;;;5031795;28;20060;-62
2021/09/15 06:10:30;;;;;;;3.08;1.40;;;16.40;54.00;;;;;;5031486;28;20025;-62
2021/09/15 06:12:56;;;;;;;3.60;1.20;;;16.50;53.90;;;;;;5031829;28;20033;-62
2021/09/15 06:15:23;;;;;;;2.70;1.27;;;16.50;53.80;;;;;;5031720;28;20040;-62
2021/09/15 06:17:49;;;;;;;2.53;1.17;;;16.50;53.50;;;;;;5031657;28;20053;-63
2021/09/15 06:20:14;;;;;;;4.07;1.48;;;16.50;53.30;;;;;;5030720;28;20437;-62
2021/09/15 06:22:40;;;;;;;2.67;1.30;;;16.60;53.20;;;;;;5031824;28;20060;-62
2021/09/15 06:25:07;;;;;;;2.72;1.15;;;16.60;53.20;;;;;;5031666;28;20029;-62
2021/09/15 06:27:34;;;;;;;2.28;1.10;;;16.60;53.10;;;;;;5031769;28;20028;-64
2021/09/15 06:30:00;;;;;;;3.45;1.17;;;16.70;53.00;;;;;;5031807;28;20026;-63
2021/09/15 06:32:25;;;;;;;3.17;1.15;;;16.70;52.80;;;;;;5031187;28;20033;-62
2021/09/15 06:34:51;;;;;;;3.20;1.20;;;16.80;52.70;;;;;;5031200;28;20427;-62
2021/09/15 06:37:17;;;;;;;3.75;1.30;;;16.80;52.70;;;;;;5030508;28;20491;-63
2021/09/15 06:39:44;;;;;;;3.17;1.30;;;16.90;52.50;;;;;;5031622;28;20030;-63
2021/09/15 06:42:10;;;;;;;3.10;1.25;;;16.90;52.30;;;;;;5031849;28;20395;-63
2021/09/15 06:44:36;;;;;;;3.50;1.30;;;17.00;52.30;;;;;;5030559;28;20022;-62
2021/09/15 06:47:01;;;;;;;3.15;1.33;;;17.00;52.40;;;;;;5031108;28;20472;-63
2021/09/15 06:49:27;;;;;;;3.30;1.40;;;17.00;52.10;;;;;;5031385;28;20491;-63
2021/09/15 06:51:53;;;;;;;3.28;1.23;;;17.10;52.10;;;;;;5031168;28;20045;-62
2021/09/15 06:54:18;;;;;;;4.18;1.40;;;17.20;52.00;;;;;;5031915;28;20033;-61
2021/09/15 06:56:45;;;;;;;3.47;1.30;;;17.10;51.80;;;;;;5035031;28;20025;-62
2021/09/15 06:59:11;;;;;;;4.63;1.40;;;17.10;51.80;;;;;;5035330;28;20855;-62
2021/09/15 07:01:37;;;;;;;3.25;1.27;;;17.10;51.90;;;;;;5035216;28;20026;-62
2021/09/15 07:04:03;;;;;;;2.45;1.20;;;17.20;51.70;;;;;;5035257;28;20095;-62
2021/09/15 07:06:28;;;;;;;2.45;1.02;;;17.30;51.80;;;;;;5035074;28;20029;-63
2021/09/15 07:08:54;;;;;;;1.67;1.02;;;17.50;51.10;;;;;;5035080;28;20384;-62
2021/09/15 07:11:21;;;;;;;2.53;1.15;;;17.70;51.00;;;;;;5035295;28;20029;-63
2021/09/15 07:13:47;;;;;;;2.40;1.05;;;17.80;50.80;;;;;;5034783;28;20074;-62
2021/09/15 07:16:13;;;;;;;3.67;1.27;;;17.90;50.50;;;;;;5034611;28;20025;-62
2021/09/15 07:18:39;;;;;;;2.33;0.93;;;18.00;50.50;;;;;;5034630;28;20543;-63
2021/09/15 07:21:05;;;;;;;2.70;1.17;;;18.20;50.60;;;;;;5035019;28;20018;-63
2021/09/15 07:23:30;;;;;;;2.58;1.10;;;18.40;50.20;;;;;;5034898;28;20381;-64
2021/09/15 07:25:56;;;;;;;2.72;1.13;;;18.50;50.10;;;;;;5034985;28;20033;-63
2021/09/15 07:28:22;;;;;;;3.95;1.23;;;18.70;49.80;;;;;;5034782;28;20513;-63
2021/09/15 07:30:48;;;;;;;3.38;1.40;;;18.90;50.20;;;;;;5034799;28;20370;-62
2021/09/15 07:33:15;;;;;;;3.50;1.20;;;19.20;49.40;;;;;;5035015;28;20059;-64
2021/09/15 07:35:41;;;;;;;3.70;1.20;;;19.40;49.20;;;;;;5034672;28;20049;-63
2021/09/15 07:38:07;;;;;;;3.42;1.40;;;19.50;48.90;;;;;;5042156;28;20041;-62
2021/09/15 07:40:32;;;;;;;2.80;1.20;;;19.70;48.80;;;;;;5039098;28;20060;-63
2021/09/15 07:42:59;;;;;;;3.00;1.20;;;19.90;48.40;;;;;;5034450;28;20076;-63
2021/09/15 07:45:26;;;;;;;3.28;1.50;;;20.10;48.10;;;;;;5034440;28;20021;-63
2021/09/15 07:47:51;;;;;;;3.05;1.20;;;20.30;48.00;;;;;;5034777;28;20029;-62
2021/09/15 07:50:17;;;;;;;2.88;1.10;;;20.50;47.60;;;;;;5031632;28;20481;-62
2021/09/15 07:52:43;;;;;;;3.05;1.20;;;20.60;47.50;;;;;;5033529;28;20480;-62
2021/09/15 07:55:09;;;;;;;4.10;1.10;;;20.80;47.20;;;;;;5021953;28;20061;-64
2021/09/15 07:57:35;;;;;;;3.90;1.23;;;21.00;46.90;;;;;;5021118;28;20056;-63
2021/09/15 08:00:01;;;;;;;2.75;1.13;;;21.20;46.50;;;;;;5035060;28;20018;-64
2021/09/15 08:02:26;;;;;;;2.47;1.13;;;21.40;46.60;;;;;;5039423;28;20025;-64
2021/09/15 08:04:52;;;;;;;2.58;1.17;;;21.60;46.10;;;;;;5044003;28;20384;-62
2021/09/15 08:07:18;;;;;;;2.97;1.17;;;21.70;45.90;;;;;;5048923;28;20067;-63
2021/09/15 08:09:43;;;;;;;3.17;1.40;;;21.80;45.60;;;;;;5052475;28;20036;-62
2021/09/15 08:12:09;;;;;;;2.17;1.08;;;22.00;45.40;;;;;;5043653;28;20032;-65
2021/09/15 08:14:35;;;;;;;3.30;1.30;;;22.10;45.20;;;;;;5033751;28;20076;-63
2021/09/15 08:17:01;;;;;;;3.72;1.20;;;22.20;44.90;;;;;;5045383;28;20025;-62
2021/09/15 08:19:27;;;;;;;2.97;1.23;;;22.30;44.50;;;;;;5038113;28;20033;-62
2021/09/15 08:21:53;;;;;;;2.30;1.13;;;22.30;44.30;;;;;;5052907;28;20017;-63
2021/09/15 08:24:19;;;;;;;2.90;1.30;;;22.40;44.10;;;;;;5053460;28;20080;-63
2021/09/15 08:26:44;;;;;;;2.92;1.30;;;22.50;44.10;;;;;;5053481;28;20040;-62
2021/09/15 08:29:10;;;;;;;2.58;1.20;;;22.60;44.00;;;;;;5050929;28;20067;-63
2021/09/15 08:31:36;;;;;;;2.88;1.20;;;22.80;43.80;;;;;;5050013;28;20072;-64
2021/09/15 08:34:02;;;;;;;2.85;1.10;;;22.80;43.20;;;;;;5051395;28;20226;-62
2021/09/15 08:36:27;;;;;;;2.53;1.10;;;22.80;43.20;;;;;;5016208;28;20026;-64
2021/09/15 08:38:53;;;;;;;3.10;1.25;;;23.00;43.20;;;;;;5047820;28;20445;-63
2021/09/15 08:41:19;;;;;;;4.40;1.50;;;23.00;43.00;;;;;;5032057;28;20033;-62
2021/09/15 08:43:45;;;;;;;3.67;1.40;;;23.10;42.80;;;;;;5033338;28;20228;-63
2021/09/15 08:46:12;;;;;;;3.33;1.33;;;23.20;42.70;;;;;;5035701;28;20025;-62
2021/09/15 08:48:41;;;;;;;2.72;1.27;;;23.40;42.60;;;;;;5015431;28;20365;-67
2021/09/15 08:51:13;;;;;;;3.33;1.23;;;23.50;42.40;;;;;;5013150;28;20053;-64
2021/09/15 08:53:39;;;;;;;;;;;23.70;42.00;;;;;;5030427;28;20073;-64
2021/09/15 08:56:05;;;;;;;3.30;1.30;;;23.80;40.60;;;;;;5035845;28;19975;-64
2021/09/15 08:58:31;;;;;;;2.55;1.20;;;24.00;42.30;;;;;;5035946;28;20083;-63
2021/09/15 09:01:16;;;;;;;2.13;1.00;;;24.10;41.60;;;;;;5032668;28;20594;-63
2021/09/15 09:03:43;;;;;;;2.05;1.00;;;24.30;40.50;;;;;;5037999;28;20163;-64
2021/09/15 09:06:17;;;;;;;2.40;1.00;;;24.40;41.30;;;;;;5051220;28;20112;-65
2021/09/15 09:08:45;;;;;;;2.58;1.20;;;24.60;41.00;;;;;;5044992;28;20101;-63
2021/09/15 09:11:13;;;;;;;2.40;1.08;;;24.80;40.80;;;;;;5038240;28;20036;-64
2021/09/15 09:13:50;;;;;;;2.58;1.10;;;25.10;40.70;;;;;;5032397;28;20029;-64
2021/09/15 09:16:18;;;;;;;2.42;1.15;;;25.40;40.40;;;;;;5034575;28;20135;-65
2021/09/15 09:19:04;;;;;;;3.17;1.30;;;25.60;40.10;;;;;;5031962;28;20071;-65
2021/09/15 09:21:32;;;;;;;2.63;1.10;;;25.70;39.70;;;;;;5032629;28;20025;-63
2021/09/15 09:23:59;;;;;;;2.17;1.10;;;25.80;39.60;;;;;;5042741;28;20028;-64
2021/09/15 09:26:55;;;;;;;3.33;1.17;;;26.00;39.30;;;;;;5028511;28;20038;-64
2021/09/15 09:29:22;;;;;;;2.47;1.23;;;26.10;39.00;;;;;;5012982;28;20029;-63
2021/09/15 09:32:03;;;;;;;5.47;1.95;;;26.30;38.90;;;;;;5012707;28;20029;-63
2021/09/15 09:34:38;;;;;;;4.72;2.10;;;26.40;38.70;;;;;;5018241;28;20100;-64
2021/09/15 09:37:17;;;;;;;3.65;1.70;;;26.60;38.50;;;;;;5030739;28;20025;-65
2021/09/15 09:39:47;;;;;;;4.40;2.10;;;26.80;38.40;;;;;;5035924;28;20025;-64
2021/09/15 09:42:22;;;;;;;4.70;1.85;;;26.90;39.00;;;;;;5026222;28;20091;-64
2021/09/15 09:45:06;;;;;;;3.80;1.48;;;27.10;38.20;;;;;;5012549;28;20018;-64
2021/09/15 09:47:34;;;;;;;3.83;1.50;;;27.30;38.10;;;;;;5034656;28;20033;-65
2021/09/15 09:50:02;;;;;;;2.67;1.20;;;27.40;38.00;;;;;;5032064;28;20847;-64
2021/09/15 09:52:49;;;;;;;3.05;1.27;;;27.60;37.90;;;;;;5040291;28;20049;-65
2021/09/15 09:55:15;;;;;;;2.78;1.10;;;27.80;37.80;;;;;;5041534;28;20712;-64
2021/09/15 09:57:41;;;;;;;2.40;1.00;;;28.10;37.60;;;;;;5044295;28;20028;-65
2021/09/15 10:00:09;;;;;;;1.98;1.00;;;28.30;37.50;;;;;;5029717;28;20038;-64
2021/09/15 10:02:34;;;;;;;2.95;1.20;;;28.50;37.30;;;;;;5034955;28;20532;-64
2021/09/15 10:05:02;;;;;;;2.08;0.95;;;28.70;37.00;;;;;;5030631;28;20028;-64
2021/09/15 10:07:28;;;;;;;2.38;1.00;;;28.80;36.90;;;;;;5031667;28;20030;-64
2021/09/15 10:09:55;;;;;;;2.92;1.10;;;28.80;36.90;;;;;;5038609;28;20120;-65
2021/09/15 10:12:22;;;;;;;2.13;0.93;;;29.00;36.90;;;;;;5043019;28;20503;-65
2021/09/15 10:14:49;;;;;;;3.05;1.00;;;29.10;36.70;;;;;;5031505;28;20065;-64
2021/09/15 10:17:16;;;;;;;2.40;1.10;;;29.20;36.80;;;;;;5032043;28;20021;-65
2021/09/15 10:19:46;;;;;;;1.45;0.80;;;29.40;36.90;;;;;;5042788;28;20033;-65
2021/09/15 10:22:13;;;;;;;3.92;1.05;;;29.60;37.00;;;;;;5041775;28;20415;-64
2021/09/15 10:24:47;;;;;;;3.10;1.00;;;29.80;37.10;;;;;;5034837;28;20033;-65
2021/09/15 10:27:14;;;;;;;2.83;1.02;;;30.10;36.50;;;;;;5039041;28;20079;-64
2021/09/15 10:29:41;;;;;;;1.98;1.00;;;30.40;37.00;;;;;;5032556;28;20036;-64
2021/09/15 10:32:13;;;;;;;2.42;0.90;;;30.70;36.70;;;;;;5030936;28;20025;-64
2021/09/15 10:34:38;;;;;;;2.25;1.00;;;31.10;36.50;;;;;;5027854;28;20036;-63
2021/09/15 10:37:11;;;;;;;2.13;1.05;;;31.40;36.50;;;;;;5039061;28;20034;-64
2021/09/15 10:40:01;;;;;;;2.25;0.93;;;31.80;36.30;;;;;;5030215;28;20021;-64
2021/09/15 10:42:46;;;;;;;2.53;1.00;;;32.20;34.90;;;;;;5030372;28;20025;-62
2021/09/15 10:45:29;;;;;;;2.88;1.05;;;32.60;35.90;;;;;;5037826;28;20035;-63
2021/09/15 10:48:10;;;;;;;2.88;1.00;;;33.00;36.20;;;;;;5035979;28;20021;-64
2021/09/15 10:50:37;;;;;;;2.03;1.00;;;33.40;35.80;;;;;;5041247;28;20483;-64
2021/09/15 10:53:03;;;;;;;1.88;1.00;;;33.80;35.50;;;;;;5050589;28;20060;-65
2021/09/15 10:55:43;;;;;;;2.72;1.10;;;34.00;35.10;;;;;;5050674;28;20033;-63
2021/09/15 10:58:30;;;;;;;3.50;1.10;;;34.20;34.50;;;;;;5030891;28;20029;-63
2021/09/15 11:00:58;;;;;;;2.47;1.08;;;34.40;33.70;;;;;;5030768;28;20032;-64
2021/09/15 11:03:38;;;;;;;3.22;1.20;;;34.70;34.60;;;;;;5030648;28;20021;-62
2021/09/15 11:06:07;;;;;;;2.65;1.10;;;35.00;34.50;;;;;;5042341;28;20060;-63
2021/09/15 11:08:41;;;;;;;2.75;1.00;;;35.30;34.30;;;;;;5030590;28;20388;-64
2021/09/15 11:11:31;;;;;;;2.72;1.02;;;35.60;33.90;;;;;;5031639;28;20103;-62
2021/09/15 11:13:58;;;;;;;3.05;1.23;;;35.80;33.70;;;;;;5045350;28;20096;-63
2021/09/15 11:16:27;;;;;;;3.90;1.30;;;36.10;33.50;;;;;;5050956;28;20487;-64
2021/09/15 11:18:57;;;;;;;3.95;1.20;;;36.30;33.20;;;;;;5051339;28;20082;-63
2021/09/15 11:21:24;;;;;;;3.25;1.20;;;36.50;32.90;;;;;;5051413;28;20021;-64
2021/09/15 11:23:54;;;;;;;2.72;1.20;;;36.80;32.90;;;;;;5033148;28;20029;-63
2021/09/15 11:26:47;;;;;;;2.35;1.10;;;37.00;32.70;;;;;;5049829;28;20142;-63
2021/09/15 11:29:15;;;;;;;2.67;1.02;;;37.30;32.10;;;;;;5049781;28;20040;-62
2021/09/15 11:31:42;;;;;;;1.70;0.88;;;37.40;31.90;;;;;;5045288;28;20057;-64
2021/09/15 11:34:13;;;;;;;2.92;1.10;;;37.40;31.80;;;;;;5030963;28;20200;-64
2021/09/15 11:36:47;;;;;;;2.95;1.17;;;37.50;31.10;;;;;;5025624;28;20020;-64
2021/09/15 11:39:17;;;;;;;1.95;0.90;;;37.70;31.30;;;;;;5042009;28;20032;-64
2021/09/15 11:41:43;;;;;;;2.40;0.90;;;37.90;31.00;;;;;;5032116;28;20026;-62
2021/09/15 11:44:09;;;;;;;2.10;1.00;;;38.10;30.70;;;;;;5031136;28;20033;-63
2021/09/15 11:46:36;;;;;;;2.15;1.00;;;38.30;30.40;;;;;;5053626;28;20033;-64
2021/09/15 11:49:04;;;;;;;1.77;0.85;;;38.60;30.10;;;;;;5049276;28;20029;-63
2021/09/15 11:51:33;;;;;;;3.05;1.10;;;38.80;30.00;;;;;;5042473;28;20049;-63
2021/09/15 11:54:07;;;;;;;2.05;0.90;;;39.00;29.70;;;;;;5029726;28;20024;-64
2021/09/15 11:59:00;;;;;;;2.22;0.95;;;39.30;29.50;;;;;;5034326;28;20029;-64
2021/09/15 12:01:29;;;;;;;2.55;1.05;;;39.50;29.30;;;;;;5034185;28;20044;-63
2021/09/15 12:03:57;;;;;;;2.75;1.00;;;39.70;29.20;;;;;;5034337;28;20021;-63
2021/09/15 12:06:23;;;;;;;3.35;1.33;;;40.00;29.20;;;;;;5034117;28;20026;-64
2021/09/15 12:08:49;;;;;;;3.10;1.20;;;40.30;29.20;;;;;;5033910;28;20018;-63
2021/09/15 12:11:16;;;;;;;2.75;1.10;;;40.50;29.10;;;;;;5034096;28;20021;-63
2021/09/15 12:13:41;;;;;;;2.80;1.10;;;40.60;28.90;;;;;;5034184;28;20102;-65
2021/09/15 12:16:07;;;;;;;2.95;1.33;;;40.80;28.80;;;;;;5033902;28;20100;-64
2021/09/15 12:18:41;;;;;;;2.92;1.13;;;40.90;28.70;;;;;;5034132;28;20026;-64
2021/09/15 12:21:18;;;;;;;2.30;1.00;;;41.10;28.30;;;;;;5034092;28;20022;-63
2021/09/15 12:23:44;;;;;;;1.98;0.95;;;41.20;28.50;;;;;;5030564;28;20022;-63
2021/09/15 12:26:11;;;;;;;3.13;1.30;;;41.30;28.20;;;;;;5032089;28;20036;-65
2021/09/15 12:28:37;;;;;;;2.95;1.20;;;41.50;28.30;;;;;;5033847;28;20030;-64
2021/09/15 12:31:06;;;;;;;2.42;1.08;;;41.60;28.10;;;;;;5045622;28;20024;-65
2021/09/15 12:33:39;;;;;;;2.83;1.10;;;41.50;28.10;;;;;;5043574;28;20026;-64
2021/09/15 12:36:12;;;;;;;2.78;1.00;;;41.50;27.30;;;;;;5031253;28;20105;-66
2021/09/15 12:38:55;;;;;;;2.50;1.10;;;41.50;28.10;;;;;;5033154;28;20025;-64
2021/09/15 12:41:22;;;;;;;2.63;1.27;;;41.60;28.00;;;;;;5047594;28;20036;-64
2021/09/15 12:43:48;;;;;;;1.98;1.00;;;41.70;28.10;;;;;;5032695;28;20040;-63
2021/09/15 12:46:21;;;;;;;1.90;1.05;;;41.80;27.80;;;;;;5042398;28;20021;-63
2021/09/15 12:48:47;;;;;;;2.05;1.00;;;41.90;27.60;;;;;;5035142;28;20044;-65
2021/09/15 12:51:20;;;;;;;2.42;1.13;;;41.90;27.40;;;;;;5043866;28;20489;-64
2021/09/15 12:53:50;;;;;;;2.10;1.00;;;41.70;27.30;;;;;;5052640;28;20029;-64
2021/09/15 12:56:23;;;;;;;2.55;1.00;;;41.60;27.40;;;;;;5040438;28;20526;-65
2021/09/15 12:58:50;;;;;;;3.33;1.00;;;41.50;27.40;;;;;;5053150;28;20430;-64
2021/09/15 13:01:20;;;;;;;2.78;1.10;;;41.50;27.30;;;;;;5044149;28;20098;-64